Lewisville, Texas
Current Conditions -  °F | °C
As of 11:53 AM on Sunday 21 Dec 2014 (Local Time) from KDFW Reporting Station
Overcast Overcast  
Wind Chill: 50°   Ceiling: 1500
Heat Index: 50°   Visibility: 10mi
Dew Point: 44°   Wind: 16mph
Humidity: 80%   Direction: 170°S
Pressure: 30.01"   Gusts: NA
Location:  33.0541°N, 97.0363°W
Report Text: KDFW 211753Z 17014KT 10SM BKN015 OVC018 10/07 A3001 RMK AO2 DZE12 SLP161 P0000 60000 T01000067 10100 20083 $
Loading
Personal Weather Stations






























Interactive Weather Map New forecast layout! Learn more

10-Day Weather Forecast

Advertisements
Track Severe Weather on mobile